createdAt,value
2023-05-09T00:02:01.150Z,8.77
2023-05-09T00:05:06.277Z,8.80
2023-05-09T00:08:10.364Z,8.98
2023-05-09T00:11:14.059Z,8.89
2023-05-09T00:14:19.251Z,8.97
2023-05-09T00:17:25.845Z,9.08
2023-05-09T00:20:29.265Z,9.14
2023-05-09T00:23:32.866Z,9.24
2023-05-09T00:26:36.764Z,9.49
2023-05-09T00:29:40.163Z,9.77
2023-05-09T00:32:44.083Z,9.86
2023-05-09T00:35:48.248Z,10.14
2023-05-09T00:38:52.412Z,10.44
2023-05-09T00:41:59.109Z,10.72
2023-05-09T00:45:05.738Z,10.63
2023-05-09T00:48:09.593Z,11.00
2023-05-09T00:51:13.535Z,11.30
2023-05-09T00:54:16.974Z,11.32
2023-05-09T00:57:21.083Z,11.52
2023-05-09T01:00:24.741Z,11.79
2023-05-09T01:03:29.448Z,12.01
2023-05-09T01:07:06.616Z,12.30
2023-05-09T01:10:39.828Z,12.51
2023-05-09T01:13:55.364Z,12.72
2023-05-09T01:17:16.476Z,12.89
2023-05-09T01:20:34.781Z,13.09
2023-05-09T01:24:15.312Z,13.36
2023-05-09T01:27:56.580Z,13.31
2023-05-09T01:31:00.211Z,13.46
2023-05-09T01:34:06.487Z,13.65
2023-05-09T01:37:11.736Z,13.74
2023-05-09T01:40:17.356Z,13.78
2023-05-09T01:43:23.573Z,14.16
2023-05-09T01:46:29.382Z,14.44
2023-05-09T01:49:34.773Z,14.31
2023-05-09T01:52:41.048Z,14.48
2023-05-09T01:55:45.148Z,14.34
2023-05-09T01:58:52.120Z,14.57
2023-05-09T02:01:57.133Z,14.74
2023-05-09T02:05:03.161Z,15.13
2023-05-09T02:08:07.675Z,15.46
2023-05-09T02:11:11.943Z,15.68
2023-05-09T02:14:15.617Z,15.84
2023-05-09T02:17:20.102Z,16.01
2023-05-09T02:20:23.732Z,16.16
2023-05-09T02:23:27.600Z,16.16
2023-05-09T02:26:32.059Z,16.36
2023-05-09T02:29:43.270Z,16.52
2023-05-09T02:32:49.752Z,16.46
2023-05-09T02:35:57.485Z,16.46
2023-05-09T02:39:01.918Z,16.61
2023-05-09T02:42:14.333Z,16.67
2023-05-09T02:45:18.347Z,16.75
2023-05-09T02:48:22.101Z,16.91
2023-05-09T02:51:25.704Z,17.14
2023-05-09T02:54:29.582Z,17.25
2023-05-09T02:57:33.382Z,17.38
2023-05-09T03:00:37.482Z,17.47
2023-05-09T03:03:42.418Z,17.60
2023-05-09T03:06:47.054Z,17.60
2023-05-09T03:09:51.011Z,17.81
2023-05-09T03:12:55.173Z,17.97
2023-05-09T03:15:59.109Z,17.84
2023-05-09T03:19:02.058Z,17.93
2023-05-09T03:22:05.046Z,17.88
2023-05-09T03:25:13.488Z,18.11
2023-05-09T03:28:17.577Z,17.90
2023-05-09T03:31:21.046Z,18.07
2023-05-09T03:34:25.372Z,18.38
2023-05-09T03:37:28.593Z,18.69
2023-05-09T03:40:33.409Z,18.83
2023-05-09T03:43:44.060Z,18.99
2023-05-09T03:46:48.875Z,19.22
2023-05-09T03:49:54.173Z,18.97
2023-05-09T03:52:59.475Z,19.07
2023-05-09T03:56:03.128Z,19.31
2023-05-09T03:59:11.021Z,19.55
2023-05-09T04:02:15.042Z,19.56
2023-05-09T04:05:20.861Z,19.56
2023-05-09T04:08:25.128Z,19.61
2023-05-09T04:11:29.559Z,19.55
2023-05-09T04:14:35.486Z,19.31
2023-05-09T04:17:39.250Z,19.55
2023-05-09T04:20:42.881Z,19.79
2023-05-09T04:23:49.384Z,19.92
2023-05-09T04:26:55.845Z,19.86
2023-05-09T04:30:02.760Z,20.06
2023-05-09T04:33:06.870Z,20.25
2023-05-09T04:36:11.505Z,20.51
2023-05-09T04:39:15.452Z,20.65
2023-05-09T04:42:28.620Z,20.52
2023-05-09T04:45:32.445Z,20.66
2023-05-09T04:48:37.916Z,20.79
2023-05-09T04:51:41.606Z,20.93
2023-05-09T04:54:45.790Z,21.08
2023-05-09T04:57:51.658Z,21.22
2023-05-09T05:00:56.135Z,21.35
2023-05-09T05:04:00.019Z,21.58
2023-05-09T05:07:06.516Z,21.77
2023-05-09T05:10:11.944Z,21.89
2023-05-09T05:13:19.359Z,21.77
2023-05-09T05:16:26.515Z,21.77
2023-05-09T05:19:30.691Z,21.50
2023-05-09T05:22:34.983Z,21.40
2023-05-09T05:25:39.125Z,21.31
2023-05-09T05:28:42.912Z,21.75
2023-05-09T05:31:47.148Z,22.13
2023-05-09T05:34:50.918Z,21.83
2023-05-09T05:37:55.113Z,21.92
2023-05-09T05:40:59.137Z,21.88
2023-05-09T05:44:04.761Z,22.21
2023-05-09T05:47:09.535Z,22.63
2023-05-09T05:50:14.526Z,22.85
2023-05-09T05:53:18.626Z,23.01
2023-05-09T05:56:23.698Z,22.85
2023-05-09T05:59:27.152Z,22.92
2023-05-09T06:02:31.547Z,22.79
2023-05-09T06:05:35.873Z,22.76
2023-05-09T06:08:39.987Z,22.76
2023-05-09T06:11:43.806Z,23.13
2023-05-09T06:14:47.866Z,23.31
2023-05-09T06:17:51.618Z,23.49
2023-05-09T06:20:55.922Z,23.45
2023-05-09T06:24:09.930Z,24.12
2023-05-09T06:27:18.483Z,24.69
2023-05-09T06:30:26.373Z,24.99
2023-05-09T06:33:31.282Z,25.07
2023-05-09T06:36:35.663Z,25.49
2023-05-09T06:39:39.897Z,25.74
2023-05-09T06:42:43.653Z,25.55
2023-05-09T06:45:47.748Z,25.62
2023-05-09T06:48:51.685Z,25.63
2023-05-09T06:51:55.472Z,25.97
2023-05-09T06:54:58.954Z,26.80
2023-05-09T06:58:03.422Z,27.62
2023-05-09T07:01:07.307Z,28.41
2023-05-09T07:04:11.947Z,28.54
2023-05-09T07:07:16.819Z,29.05
2023-05-09T07:10:21.022Z,29.54
2023-05-09T07:13:24.334Z,29.73
2023-05-09T07:16:30.327Z,29.73
2023-05-09T07:19:33.765Z,29.82
2023-05-09T07:22:38.060Z,30.44
2023-05-09T07:25:41.578Z,31.11
2023-05-09T07:28:45.910Z,31.72
2023-05-09T07:31:49.948Z,32.29
2023-05-09T07:34:54.148Z,32.70
2023-05-09T07:37:57.823Z,32.62
2023-05-09T07:41:02.095Z,32.82
2023-05-09T07:44:05.710Z,33.00
2023-05-09T07:47:10.090Z,32.90
2023-05-09T07:50:13.806Z,33.30
2023-05-09T07:53:17.561Z,33.83
2023-05-09T07:56:22.045Z,34.15
2023-05-09T07:59:26.154Z,33.26
2023-05-09T08:02:29.586Z,32.46
2023-05-09T08:05:33.736Z,32.90
2023-05-09T08:08:38.904Z,32.20
2023-05-09T08:11:43.758Z,32.69
2023-05-09T08:14:47.548Z,33.03
2023-05-09T08:17:51.791Z,33.57
2023-05-09T08:20:55.584Z,33.99
2023-05-09T08:23:59.377Z,34.43
2023-05-09T08:27:03.316Z,34.85
2023-05-09T08:30:08.390Z,35.29
2023-05-09T08:33:12.214Z,35.76
2023-05-09T08:36:16.688Z,36.14
2023-05-09T08:39:23.513Z,35.60
2023-05-09T08:42:28.922Z,35.30
2023-05-09T08:45:48.341Z,35.09
2023-05-09T08:48:52.710Z,35.09
2023-05-09T08:51:57.404Z,35.32
2023-05-09T08:55:02.378Z,35.91
2023-05-09T08:58:06.349Z,36.36
2023-05-09T09:01:11.640Z,36.12
2023-05-09T09:04:15.329Z,35.98
2023-05-09T09:07:20.456Z,35.85
2023-05-09T09:10:26.430Z,36.20
2023-05-09T09:13:31.386Z,36.24
2023-05-09T09:16:36.575Z,36.53
2023-05-09T09:19:43.130Z,36.45
2023-05-09T09:22:49.132Z,36.02
2023-05-09T09:26:11.380Z,35.56
2023-05-09T09:29:16.072Z,35.74
2023-05-09T09:32:20.346Z,35.73
2023-05-09T09:35:25.471Z,35.54
2023-05-09T09:38:28.837Z,34.33
2023-05-09T09:41:39.358Z,33.65
2023-05-09T09:44:43.469Z,33.11
2023-05-09T09:47:49.092Z,32.87
2023-05-09T09:50:52.363Z,32.49
2023-05-09T09:53:56.271Z,32.58
2023-05-09T09:57:00.484Z,32.41
2023-05-09T10:00:06.681Z,32.91
2023-05-09T10:03:17.298Z,32.90
2023-05-09T10:06:21.214Z,33.16
2023-05-09T10:09:26.008Z,32.96
2023-05-09T10:12:29.516Z,33.07
2023-05-09T10:15:49.478Z,32.36
2023-05-09T10:18:56.792Z,31.76
2023-05-09T10:22:05.018Z,31.59
2023-05-09T10:25:15.745Z,30.96
2023-05-09T10:28:23.667Z,30.37
2023-05-09T10:31:29.486Z,30.08
2023-05-09T10:34:35.476Z,30.13
2023-05-09T10:37:40.096Z,30.12
2023-05-09T10:40:47.265Z,29.84
2023-05-09T10:43:51.669Z,29.43
2023-05-09T10:46:56.279Z,29.13
2023-05-09T10:50:00.818Z,28.69
2023-05-09T10:53:19.477Z,28.40
2023-05-09T10:56:36.377Z,27.61
2023-05-09T10:59:43.128Z,27.04
2023-05-09T11:03:08.387Z,26.79
2023-05-09T11:06:52.297Z,26.32
2023-05-09T11:10:18.958Z,25.93
2023-05-09T11:13:25.124Z,25.53
2023-05-09T11:16:28.381Z,25.17
2023-05-09T11:19:47.827Z,24.80
2023-05-09T11:22:54.103Z,24.46
2023-05-09T11:26:07.829Z,23.97
2023-05-09T11:29:11.217Z,23.46
2023-05-09T11:32:18.025Z,23.12
2023-05-09T11:35:23.715Z,22.75
2023-05-09T11:38:26.725Z,22.44
2023-05-09T11:41:31.026Z,22.09
2023-05-09T11:44:37.336Z,21.77
2023-05-09T11:47:41.364Z,21.50
2023-05-09T11:50:48.607Z,21.11
2023-05-09T11:53:52.094Z,20.75
2023-05-09T11:56:55.184Z,20.42
2023-05-09T12:00:01.428Z,20.16
2023-05-09T12:03:08.673Z,19.92
2023-05-09T12:06:17.780Z,19.69
2023-05-09T12:09:22.078Z,19.48
2023-05-09T12:12:25.904Z,19.29
2023-05-09T12:15:29.933Z,19.15
2023-05-09T12:18:33.605Z,18.93
2023-05-09T12:21:41.243Z,18.79
2023-05-09T12:24:44.271Z,18.67
2023-05-09T12:27:47.331Z,18.55
2023-05-09T12:30:51.996Z,18.39
2023-05-09T12:33:55.784Z,18.02
2023-05-09T12:37:00.651Z,17.83
2023-05-09T12:40:06.002Z,17.73
2023-05-09T12:43:09.734Z,17.62
2023-05-09T12:46:13.908Z,17.54
2023-05-09T12:49:22.591Z,17.40
2023-05-09T12:52:27.143Z,17.39
2023-05-09T12:55:32.269Z,17.35
2023-05-09T12:58:36.473Z,17.28
2023-05-09T13:01:40.259Z,17.18
2023-05-09T13:04:44.517Z,17.12
2023-05-09T13:07:58.334Z,17.02
2023-05-09T13:11:14.867Z,16.98
2023-05-09T13:14:22.206Z,16.88
2023-05-09T13:17:26.098Z,16.80
2023-05-09T13:20:30.242Z,16.70
2023-05-09T13:23:33.893Z,16.60
2023-05-09T13:26:37.339Z,16.50
2023-05-09T13:29:43.658Z,16.43
2023-05-09T13:32:57.415Z,16.33
2023-05-09T13:36:02.288Z,16.23
2023-05-09T13:39:05.672Z,16.18
2023-05-09T13:42:09.970Z,16.13
2023-05-09T13:45:13.109Z,16.05
2023-05-09T13:48:16.738Z,15.98
2023-05-09T13:51:20.027Z,15.82
2023-05-09T13:54:25.879Z,15.68
2023-05-09T13:57:29.415Z,15.51
2023-05-09T14:00:33.861Z,15.43
2023-05-09T14:03:37.826Z,15.32
2023-05-09T14:06:48.206Z,15.22
2023-05-09T14:09:56.224Z,15.13
2023-05-09T14:13:05.078Z,15.05
2023-05-09T14:16:09.471Z,14.99
2023-05-09T14:19:15.726Z,14.89
2023-05-09T14:22:18.631Z,14.81
2023-05-09T14:25:23.552Z,14.77
2023-05-09T14:28:27.486Z,14.71
2023-05-09T14:31:30.943Z,14.69
2023-05-09T14:34:34.319Z,14.64
2023-05-09T14:37:37.995Z,14.61
2023-05-09T14:40:41.625Z,14.44
2023-05-09T14:43:44.870Z,14.26
2023-05-09T14:46:48.985Z,14.14
2023-05-09T14:49:53.172Z,13.96
2023-05-09T14:52:56.840Z,13.79
2023-05-09T14:56:00.146Z,13.72
2023-05-09T14:59:04.365Z,13.65
2023-05-09T15:02:07.776Z,13.51
2023-05-09T15:05:12.054Z,13.41
2023-05-09T15:08:15.376Z,13.26
2023-05-09T15:11:19.017Z,13.16
2023-05-09T15:14:22.552Z,13.06
2023-05-09T15:17:25.528Z,12.99
2023-05-09T15:20:29.350Z,12.85
2023-05-09T15:23:32.347Z,12.79
2023-05-09T15:26:36.567Z,12.68
2023-05-09T15:29:42.420Z,12.59
2023-05-09T15:32:45.504Z,12.49
2023-05-09T15:35:50.633Z,12.41
2023-05-09T15:38:53.749Z,12.31
2023-05-09T15:41:56.782Z,12.23
2023-05-09T15:45:00.384Z,12.16
2023-05-09T15:48:04.669Z,12.08
2023-05-09T15:51:07.785Z,12.00
2023-05-09T15:54:10.989Z,11.91
2023-05-09T15:57:15.142Z,11.96
2023-05-09T16:00:18.753Z,11.97
2023-05-09T16:03:23.961Z,11.90
2023-05-09T16:06:29.133Z,11.75
2023-05-09T16:09:33.891Z,11.63
2023-05-09T16:12:37.235Z,11.52
2023-05-09T16:15:41.658Z,11.25
2023-05-09T16:18:45.444Z,11.07
2023-05-09T16:21:49.400Z,10.86
2023-05-09T16:24:53.268Z,10.67
2023-05-09T16:27:57.200Z,10.56
2023-05-09T16:31:05.512Z,10.44
2023-05-09T16:34:09.411Z,10.29
2023-05-09T16:37:12.401Z,10.15
2023-05-09T16:40:16.478Z,10.12
2023-05-09T16:43:20.662Z,10.05
2023-05-09T16:46:24.823Z,10.04
2023-05-09T16:49:29.016Z,9.98
2023-05-09T16:52:32.708Z,9.95
2023-05-09T16:55:36.667Z,9.89
2023-05-09T16:58:40.350Z,9.81
2023-05-09T17:01:44.006Z,9.77
2023-05-09T17:04:48.041Z,9.70
2023-05-09T17:07:51.377Z,9.62
2023-05-09T17:10:55.476Z,9.60
2023-05-09T17:13:59.193Z,9.54
2023-05-09T17:17:03.318Z,9.52
2023-05-09T17:20:07.690Z,9.45
2023-05-09T17:23:11.655Z,9.43
2023-05-09T17:26:15.467Z,9.39
2023-05-09T17:29:19.421Z,9.32
2023-05-09T17:32:22.753Z,9.21
2023-05-09T17:35:26.829Z,9.14
2023-05-09T17:38:30.758Z,9.05
2023-05-09T17:41:34.861Z,8.96
2023-05-09T17:44:39.526Z,8.91
2023-05-09T17:47:43.109Z,8.83
2023-05-09T17:50:47.499Z,8.76
2023-05-09T17:53:53.596Z,8.69
2023-05-09T17:57:01.718Z,8.63
2023-05-09T18:00:08.824Z,8.57
2023-05-09T18:03:21.488Z,8.53
2023-05-09T18:06:24.642Z,8.48
2023-05-09T18:09:27.762Z,8.45
2023-05-09T18:12:31.982Z,8.39
2023-05-09T18:15:38.630Z,8.33
2023-05-09T18:18:42.835Z,8.21
2023-05-09T18:21:46.039Z,8.19
2023-05-09T18:24:50.296Z,8.12
2023-05-09T18:27:53.830Z,8.06
2023-05-09T18:31:01.757Z,7.94
2023-05-09T18:34:06.570Z,7.93
2023-05-09T18:37:11.220Z,7.84
2023-05-09T18:40:16.377Z,7.78
2023-05-09T18:43:22.399Z,7.73
2023-05-09T18:46:28.323Z,7.71
2023-05-09T18:49:32.443Z,7.67
2023-05-09T18:52:36.126Z,7.63
2023-05-09T18:55:39.806Z,7.57
2023-05-09T18:58:43.374Z,7.53
2023-05-09T19:01:47.623Z,7.42
2023-05-09T19:04:52.017Z,7.32
2023-05-09T19:07:56.125Z,7.26
2023-05-09T19:10:59.468Z,7.28
2023-05-09T19:14:03.459Z,7.20
2023-05-09T19:17:07.247Z,7.19
2023-05-09T19:20:11.507Z,7.09
2023-05-09T19:23:15.544Z,7.01
2023-05-09T19:26:20.037Z,7.02
2023-05-09T19:29:24.136Z,6.94
2023-05-09T19:32:27.874Z,6.95
2023-05-09T19:35:32.064Z,6.99
2023-05-09T19:38:35.881Z,6.88
2023-05-09T19:41:39.566Z,6.83
2023-05-09T19:44:43.348Z,6.78
2023-05-09T19:47:47.348Z,6.76
2023-05-09T19:50:56.302Z,6.64
2023-05-09T19:54:00.394Z,6.58
2023-05-09T19:57:06.778Z,6.54
2023-05-09T20:00:11.255Z,6.46
2023-05-09T20:03:15.802Z,6.47
2023-05-09T20:06:19.943Z,6.37
2023-05-09T20:09:23.417Z,6.30
2023-05-09T20:12:29.364Z,6.29
2023-05-09T20:15:34.049Z,6.26
2023-05-09T20:18:37.767Z,6.23
2023-05-09T20:21:40.727Z,6.16
2023-05-09T20:24:44.050Z,6.12
2023-05-09T20:27:47.781Z,6.06
2023-05-09T20:30:51.963Z,6.08
2023-05-09T20:33:56.153Z,6.13
2023-05-09T20:37:00.213Z,6.12
2023-05-09T20:40:07.040Z,6.11
2023-05-09T20:43:11.035Z,6.08
2023-05-09T20:46:14.743Z,6.06
2023-05-09T20:49:18.836Z,6.05
2023-05-09T20:52:22.585Z,5.99
2023-05-09T20:55:26.510Z,5.97
2023-05-09T20:58:34.126Z,5.95
2023-05-09T21:01:38.205Z,5.93
2023-05-09T21:04:42.004Z,5.84
2023-05-09T21:07:46.057Z,5.79
2023-05-09T21:10:53.070Z,5.77
2023-05-09T21:13:56.785Z,5.74
2023-05-09T21:17:00.635Z,5.74
2023-05-09T21:20:04.691Z,5.73
2023-05-09T21:23:09.405Z,5.75
2023-05-09T21:26:12.885Z,5.75
2023-05-09T21:29:16.916Z,5.77
2023-05-09T21:32:20.602Z,5.74
2023-05-09T21:35:24.168Z,5.78
2023-05-09T21:38:27.794Z,5.84
2023-05-09T21:41:31.822Z,5.85
2023-05-09T21:44:36.952Z,5.90
2023-05-09T21:47:41.523Z,5.91
2023-05-09T21:50:46.634Z,5.95
2023-05-09T21:53:50.782Z,5.99
2023-05-09T21:56:54.351Z,6.01
2023-05-09T22:00:02.059Z,6.05
2023-05-09T22:03:15.829Z,6.02
2023-05-09T22:06:19.965Z,6.04
2023-05-09T22:09:24.165Z,6.08
2023-05-09T22:12:28.191Z,6.12
2023-05-09T22:15:31.859Z,6.16
2023-05-09T22:18:36.079Z,6.19
2023-05-09T22:21:39.539Z,6.22
2023-05-09T22:24:43.382Z,6.29
2023-05-09T22:27:47.379Z,6.40
2023-05-09T22:30:51.347Z,6.52
2023-05-09T22:33:55.054Z,6.54
2023-05-09T22:36:58.417Z,6.37
2023-05-09T22:40:02.099Z,6.33
2023-05-09T22:43:05.954Z,6.44
2023-05-09T22:46:09.706Z,6.52
2023-05-09T22:49:13.918Z,6.66
2023-05-09T22:52:17.740Z,6.78
2023-05-09T22:55:21.936Z,6.98
2023-05-09T22:58:25.622Z,7.14
2023-05-09T23:01:29.806Z,7.32
2023-05-09T23:04:33.449Z,7.53
2023-05-09T23:07:37.829Z,7.70
2023-05-09T23:10:41.368Z,7.90
2023-05-09T23:13:44.968Z,8.08
2023-05-09T23:16:49.757Z,8.22
2023-05-09T23:19:53.423Z,8.45
2023-05-09T23:22:57.243Z,8.63
2023-05-09T23:26:01.023Z,8.80
2023-05-09T23:29:04.671Z,9.04
2023-05-09T23:32:08.733Z,9.19
2023-05-09T23:35:12.285Z,9.36
2023-05-09T23:38:16.237Z,9.50
2023-05-09T23:41:19.943Z,9.63
2023-05-09T23:44:23.802Z,9.73
2023-05-09T23:47:27.685Z,9.79
2023-05-09T23:50:31.673Z,9.79
2023-05-09T23:53:35.720Z,9.80
2023-05-09T23:56:39.829Z,10.00
2023-05-09T23:59:43.730Z,10.19
